createdAt,value
2018-12-14T00:01:43.389Z,28.87
2018-12-14T00:04:12.362Z,29.80
2018-12-14T00:06:41.311Z,26.13
2018-12-14T00:09:10.218Z,26.00
2018-12-14T00:11:45.406Z,28.70
2018-12-14T00:14:10.119Z,28.47
2018-12-14T00:16:39.073Z,29.63
2018-12-14T00:19:07.971Z,24.83
2018-12-14T00:21:36.913Z,27.77
2018-12-14T00:24:05.841Z,30.27
2018-12-14T00:26:34.823Z,26.33
2018-12-14T00:29:03.830Z,26.87
2018-12-14T00:31:32.854Z,25.00
2018-12-14T00:34:01.767Z,25.90
2018-12-14T00:36:30.631Z,24.67
2018-12-14T00:38:59.707Z,25.60
2018-12-14T00:41:28.634Z,24.73
2018-12-14T00:43:57.554Z,28.10
2018-12-14T00:46:26.517Z,24.53
2018-12-14T00:48:55.440Z,30.00
2018-12-14T00:51:24.462Z,29.63
2018-12-14T00:53:53.339Z,31.13
2018-12-14T00:56:22.246Z,26.17
2018-12-14T00:58:51.187Z,27.07
2018-12-14T01:01:20.114Z,26.40
2018-12-14T01:03:49.750Z,27.97
2018-12-14T01:06:18.988Z,26.50
2018-12-14T01:08:47.895Z,25.73
2018-12-14T01:11:16.850Z,24.33
2018-12-14T01:13:45.795Z,25.73
2018-12-14T01:16:14.745Z,25.27
2018-12-14T01:18:43.711Z,26.77
2018-12-14T01:21:12.602Z,25.47
2018-12-14T01:23:41.507Z,23.97
2018-12-14T01:26:10.387Z,23.77
2018-12-14T01:28:39.273Z,23.73
2018-12-14T01:31:08.179Z,25.97
2018-12-14T01:33:37.108Z,24.37
2018-12-14T01:36:06.032Z,24.07
2018-12-14T01:38:34.938Z,23.17
2018-12-14T01:41:03.854Z,24.13
2018-12-14T01:43:32.767Z,23.23
2018-12-14T01:46:01.688Z,22.73
2018-12-14T01:48:31.068Z,21.33
2018-12-14T01:51:00.014Z,25.40
2018-12-14T01:53:28.926Z,24.37
2018-12-14T01:55:57.860Z,24.20
2018-12-14T01:58:27.242Z,24.07
2018-12-14T02:00:56.121Z,22.97
2018-12-14T02:03:25.147Z,23.47
2018-12-14T02:05:54.039Z,24.17
2018-12-14T02:08:22.904Z,22.27
2018-12-14T02:10:51.856Z,24.70
2018-12-14T02:13:20.926Z,24.23
2018-12-14T02:15:49.885Z,22.77
2018-12-14T02:18:18.824Z,23.77
2018-12-14T02:20:47.798Z,20.73
2018-12-14T02:23:16.711Z,24.73
2018-12-14T02:25:45.611Z,22.73
2018-12-14T02:28:14.598Z,22.07
2018-12-14T02:30:45.299Z,24.80
2018-12-14T02:33:14.289Z,27.20
2018-12-14T02:35:43.277Z,24.50
2018-12-14T02:38:12.142Z,23.03
2018-12-14T02:40:41.062Z,23.40
2018-12-14T02:43:09.991Z,22.57
2018-12-14T02:45:38.850Z,24.27
2018-12-14T02:48:07.754Z,23.03
2018-12-14T02:50:36.712Z,22.80
2018-12-14T02:53:05.600Z,23.40
2018-12-14T02:55:34.746Z,23.53
2018-12-14T02:58:03.680Z,23.33
2018-12-14T03:00:32.569Z,22.77
2018-12-14T03:03:01.559Z,23.90
2018-12-14T03:05:30.529Z,23.90
2018-12-14T03:07:59.396Z,22.97
2018-12-14T03:10:28.347Z,22.83
2018-12-14T03:12:57.282Z,29.20
2018-12-14T03:15:26.181Z,22.67
2018-12-14T03:17:55.142Z,22.40
2018-12-14T03:20:24.027Z,21.53
2018-12-14T03:22:52.906Z,21.33
2018-12-14T03:25:21.906Z,21.93
2018-12-14T03:27:50.839Z,19.63
2018-12-14T03:30:19.728Z,19.90
2018-12-14T03:32:48.708Z,19.23
2018-12-14T03:35:17.675Z,20.17
2018-12-14T03:37:46.566Z,44.97
2018-12-14T03:40:15.536Z,47.53
2018-12-14T03:42:44.459Z,68.93
2018-12-14T03:45:13.502Z,25.83
2018-12-14T03:47:42.427Z,22.67
2018-12-14T03:50:11.299Z,25.20
2018-12-14T03:52:40.215Z,20.00
2018-12-14T03:55:09.195Z,21.07
2018-12-14T03:57:38.162Z,18.17
2018-12-14T04:00:10.059Z,19.27
2018-12-14T04:02:38.993Z,19.00
2018-12-14T04:05:07.928Z,19.43
2018-12-14T04:07:36.891Z,19.40
2018-12-14T04:10:06.697Z,19.87
2018-12-14T04:12:41.652Z,17.07
2018-12-14T04:15:06.678Z,20.53
2018-12-14T04:17:35.598Z,21.13
2018-12-14T04:20:04.731Z,18.53
2018-12-14T04:22:33.727Z,20.87
2018-12-14T04:25:02.625Z,19.37
2018-12-14T04:27:31.584Z,28.10
2018-12-14T04:30:00.495Z,27.57
2018-12-14T04:32:29.400Z,37.27
2018-12-14T04:34:58.313Z,35.47
2018-12-14T04:37:27.347Z,22.93
2018-12-14T04:39:56.243Z,19.43
2018-12-14T04:42:25.423Z,18.73
2018-12-14T04:44:54.352Z,24.50
2018-12-14T04:47:23.476Z,27.23
2018-12-14T04:49:52.641Z,32.37
2018-12-14T04:52:21.487Z,33.13
2018-12-14T04:54:50.368Z,42.27
2018-12-14T04:57:19.243Z,41.63
2018-12-14T04:59:48.084Z,38.77
2018-12-14T05:02:17.007Z,33.63
2018-12-14T05:04:45.894Z,31.27
2018-12-14T05:07:14.826Z,36.63
2018-12-14T05:09:43.702Z,35.40
2018-12-14T05:12:12.565Z,25.77
2018-12-14T05:14:41.522Z,34.80
2018-12-14T05:17:10.449Z,32.97
2018-12-14T05:19:39.423Z,25.73
2018-12-14T05:22:08.297Z,22.43
2018-12-14T05:24:37.237Z,19.20
2018-12-14T05:27:06.485Z,18.77
2018-12-14T05:29:35.406Z,23.20
2018-12-14T05:32:04.300Z,25.27
2018-12-14T05:34:33.288Z,32.53
2018-12-14T05:37:02.234Z,27.43
2018-12-14T05:39:31.110Z,24.87
2018-12-14T05:42:00.058Z,29.03
2018-12-14T05:44:28.913Z,33.23
2018-12-14T05:46:57.902Z,48.30
2018-12-14T05:49:26.810Z,40.77
2018-12-14T05:51:55.688Z,34.93
2018-12-14T05:54:24.690Z,26.10
2018-12-14T05:56:53.671Z,28.93
2018-12-14T05:59:22.702Z,27.37
2018-12-14T06:01:51.634Z,30.13
2018-12-14T06:04:20.849Z,33.30
2018-12-14T06:06:49.817Z,41.00
2018-12-14T06:09:18.699Z,35.40
2018-12-14T06:11:47.628Z,24.93
2018-12-14T06:14:16.727Z,27.50
2018-12-14T06:16:45.695Z,26.83
2018-12-14T06:19:14.644Z,29.60
2018-12-14T06:21:43.708Z,26.20
2018-12-14T06:24:13.032Z,30.90
2018-12-14T06:26:42.650Z,27.67
2018-12-14T06:29:14.938Z,25.97
2018-12-14T06:31:43.974Z,25.73
2018-12-14T06:34:12.894Z,25.83
2018-12-14T06:36:41.741Z,26.60
2018-12-14T06:39:10.666Z,31.77
2018-12-14T06:41:40.516Z,28.80
2018-12-14T06:44:09.430Z,26.20
2018-12-14T06:46:38.412Z,23.37
2018-12-14T06:49:07.335Z,23.63
2018-12-14T06:51:37.543Z,22.47
2018-12-14T06:54:06.806Z,25.87
2018-12-14T06:56:35.777Z,28.00
2018-12-14T06:59:04.840Z,31.93
2018-12-14T07:01:33.785Z,32.20
2018-12-14T07:04:02.716Z,28.80
2018-12-14T07:06:32.535Z,30.80
2018-12-14T07:09:01.429Z,28.27
2018-12-14T07:11:30.420Z,30.53
2018-12-14T07:13:59.272Z,33.90
2018-12-14T07:16:28.209Z,38.00
2018-12-14T07:18:57.163Z,32.13
2018-12-14T07:21:26.045Z,26.93
2018-12-14T07:23:55.609Z,37.27
2018-12-14T07:26:24.554Z,27.37
2018-12-14T07:28:53.566Z,26.23
2018-12-14T07:31:25.127Z,26.73
2018-12-14T07:33:54.535Z,33.93
2018-12-14T07:36:23.542Z,27.00
2018-12-14T07:38:52.485Z,31.87
2018-12-14T07:41:21.417Z,26.93
2018-12-14T07:43:50.422Z,27.13
2018-12-14T07:46:20.532Z,24.63
2018-12-14T07:48:49.667Z,27.60
2018-12-14T07:51:19.613Z,34.33
2018-12-14T07:53:49.453Z,24.30
2018-12-14T07:56:18.293Z,30.67
2018-12-14T07:58:47.831Z,22.67
2018-12-14T08:01:17.037Z,26.83
2018-12-14T08:03:46.025Z,28.07
2018-12-14T08:06:15.130Z,25.03
2018-12-14T08:08:44.026Z,23.93
2018-12-14T08:11:12.944Z,27.00
2018-12-14T08:13:41.883Z,28.73
2018-12-14T08:16:10.814Z,31.07
2018-12-14T08:18:40.107Z,28.87
2018-12-14T08:21:09.011Z,28.00
2018-12-14T08:23:38.625Z,27.50
2018-12-14T08:26:07.516Z,31.90
2018-12-14T08:28:36.394Z,30.73
2018-12-14T08:31:05.438Z,35.93
2018-12-14T08:33:35.064Z,29.07
2018-12-14T08:36:03.958Z,31.50
2018-12-14T08:38:32.969Z,34.27
2018-12-14T08:41:02.170Z,34.40
2018-12-14T08:43:31.314Z,34.67
2018-12-14T08:46:00.310Z,31.77
2018-12-14T08:48:29.355Z,34.30
2018-12-14T08:50:58.286Z,35.53
2018-12-14T08:53:28.828Z,28.17
2018-12-14T08:55:57.958Z,27.70
2018-12-14T08:58:26.898Z,25.70
2018-12-14T09:00:55.811Z,26.20
2018-12-14T09:03:24.705Z,35.57
2018-12-14T09:05:53.665Z,34.67
2018-12-14T09:08:22.661Z,39.70
2018-12-14T09:10:51.537Z,33.63
2018-12-14T09:13:20.481Z,34.60
2018-12-14T09:15:49.537Z,27.53
2018-12-14T09:18:18.427Z,31.70
2018-12-14T09:20:47.354Z,27.13
2018-12-14T09:23:16.482Z,28.10
2018-12-14T09:25:45.469Z,30.13
2018-12-14T09:28:14.437Z,31.40
2018-12-14T09:30:43.341Z,27.50
2018-12-14T09:33:12.322Z,26.67
2018-12-14T09:35:41.263Z,29.00
2018-12-14T09:38:10.175Z,29.57
2018-12-14T09:40:39.185Z,25.50
2018-12-14T09:43:08.145Z,32.07
2018-12-14T09:45:37.070Z,26.33
2018-12-14T09:48:06.306Z,27.83
2018-12-14T09:50:35.360Z,25.03
2018-12-14T09:53:04.375Z,36.67
2018-12-14T09:55:33.397Z,35.47
2018-12-14T09:58:02.325Z,34.70
2018-12-14T10:00:31.356Z,26.90
2018-12-14T10:03:00.362Z,26.43
2018-12-14T10:05:29.258Z,25.73
2018-12-14T10:07:58.160Z,27.77
2018-12-14T10:10:27.105Z,25.63
2018-12-14T10:12:55.983Z,26.00
2018-12-14T10:15:24.847Z,23.27
2018-12-14T10:17:53.743Z,28.40
2018-12-14T10:20:22.617Z,25.97
2018-12-14T10:22:52.113Z,58.30
2018-12-14T10:25:21.078Z,26.10
2018-12-14T10:27:50.001Z,24.27
2018-12-14T10:30:18.951Z,25.37
2018-12-14T10:32:47.896Z,25.77
2018-12-14T10:35:17.453Z,26.27
2018-12-14T10:37:46.382Z,22.27
2018-12-14T10:40:15.310Z,23.30
2018-12-14T10:42:44.529Z,27.80
2018-12-14T10:45:13.587Z,24.73
2018-12-14T10:47:42.492Z,23.93
2018-12-14T10:50:11.498Z,25.73
2018-12-14T10:52:40.465Z,24.30
2018-12-14T10:55:09.419Z,29.70
2018-12-14T10:57:38.586Z,25.20
2018-12-14T11:00:16.589Z,25.50
2018-12-14T11:02:45.558Z,26.97
2018-12-14T11:05:14.469Z,24.27
2018-12-14T11:07:43.374Z,23.57
2018-12-14T11:10:13.810Z,25.87
2018-12-14T11:12:43.122Z,28.13
2018-12-14T11:15:12.100Z,24.37
2018-12-14T11:17:40.979Z,25.97
2018-12-14T11:20:10.694Z,23.57
2018-12-14T11:22:39.645Z,24.43
2018-12-14T11:25:09.540Z,25.87
2018-12-14T11:27:38.740Z,26.23
2018-12-14T11:30:10.086Z,27.53
2018-12-14T11:32:38.975Z,23.83
2018-12-14T11:35:08.024Z,24.87
2018-12-14T11:37:36.966Z,29.23
2018-12-14T11:40:07.755Z,25.67
2018-12-14T11:42:36.740Z,26.30
2018-12-14T11:45:07.666Z,30.70
2018-12-14T11:47:36.669Z,32.40
2018-12-14T11:50:07.475Z,31.33
2018-12-14T11:52:36.434Z,32.33
2018-12-14T11:55:07.317Z,30.67
2018-12-14T11:57:36.501Z,27.30
2018-12-14T12:00:08.391Z,26.20
2018-12-14T12:02:42.912Z,31.47
2018-12-14T12:05:08.445Z,223.03
2018-12-14T12:07:38.084Z,175.47
2018-12-14T12:10:09.246Z,399.10
2018-12-14T12:12:38.860Z,112.73
2018-12-14T12:15:09.556Z,61.37
2018-12-14T12:17:40.064Z,108.17
2018-12-14T12:20:09.907Z,60.63
2018-12-14T12:22:38.903Z,34.87
2018-12-14T12:25:07.891Z,30.77
2018-12-14T12:27:36.773Z,41.80
2018-12-14T12:30:06.366Z,39.67
2018-12-14T12:32:35.296Z,35.10
2018-12-14T12:35:04.335Z,31.13
2018-12-14T12:37:33.234Z,31.53
2018-12-14T12:40:02.176Z,28.97
2018-12-14T12:42:31.054Z,35.00
2018-12-14T12:45:00.460Z,84.27
2018-12-14T12:47:29.390Z,49.17
2018-12-14T12:49:58.456Z,38.10
2018-12-14T12:52:27.442Z,149.30
2018-12-14T12:54:56.300Z,73.53
2018-12-14T12:57:25.408Z,63.57
2018-12-14T12:59:54.351Z,32.43
2018-12-14T13:02:23.199Z,118.63
2018-12-14T13:04:53.291Z,35.30
2018-12-14T13:07:22.740Z,85.43
2018-12-14T13:09:51.622Z,47.63
2018-12-14T13:12:20.529Z,112.00
2018-12-14T13:14:50.258Z,33.73
2018-12-14T13:17:19.220Z,104.90
2018-12-14T13:19:48.184Z,105.70
2018-12-14T13:22:17.053Z,55.73
2018-12-14T13:24:45.929Z,31.80
2018-12-14T13:27:20.216Z,37.27
2018-12-14T13:29:46.025Z,47.93
2018-12-14T13:32:14.961Z,39.17
2018-12-14T13:34:44.506Z,66.97
2018-12-14T13:37:13.887Z,40.20
2018-12-14T13:39:42.882Z,32.03
2018-12-14T13:42:11.853Z,36.17
2018-12-14T13:44:46.590Z,54.37
2018-12-14T13:47:12.269Z,55.33
2018-12-14T13:49:41.239Z,64.57
2018-12-14T13:52:10.087Z,71.13
2018-12-14T13:54:39.000Z,42.17
2018-12-14T13:57:08.868Z,35.67
2018-12-14T13:59:37.729Z,33.03
2018-12-14T14:02:06.628Z,40.23
2018-12-14T14:04:35.912Z,273.40
2018-12-14T14:07:05.174Z,120.00
2018-12-14T14:09:34.188Z,98.77
2018-12-14T14:12:03.055Z,45.73
2018-12-14T14:14:31.973Z,55.47
2018-12-14T14:17:01.508Z,99.37
2018-12-14T14:19:30.614Z,60.63
2018-12-14T14:21:59.691Z,38.83
2018-12-14T14:24:28.560Z,50.83
2018-12-14T14:26:57.557Z,55.63
2018-12-14T14:29:26.503Z,38.07
2018-12-14T14:31:55.453Z,107.67
2018-12-14T14:34:24.301Z,87.07
2018-12-14T14:36:53.202Z,40.87
2018-12-14T14:39:22.074Z,37.97
2018-12-14T14:41:50.938Z,37.37
2018-12-14T14:44:19.833Z,36.27
2018-12-14T14:46:48.790Z,45.50
2018-12-14T14:49:17.697Z,94.00
2018-12-14T14:51:46.846Z,72.00
2018-12-14T14:54:15.801Z,101.10
2018-12-14T14:56:44.677Z,67.97
2018-12-14T14:59:13.656Z,47.73
2018-12-14T15:01:42.601Z,77.33
2018-12-14T15:04:11.596Z,94.60
2018-12-14T15:06:40.570Z,64.37
2018-12-14T15:09:11.421Z,87.83
2018-12-14T15:11:40.764Z,58.17
2018-12-14T15:14:09.633Z,81.17
2018-12-14T15:16:38.489Z,60.77
2018-12-14T15:19:07.474Z,123.53
2018-12-14T15:21:36.319Z,71.43
2018-12-14T15:24:05.918Z,95.03
2018-12-14T15:26:34.814Z,67.07
2018-12-14T15:29:04.192Z,79.00
2018-12-14T15:31:33.105Z,65.33
2018-12-14T15:34:02.091Z,112.80
2018-12-14T15:36:31.067Z,80.72
2018-12-14T15:39:00.015Z,126.00
2018-12-14T15:41:28.874Z,112.70
2018-12-14T15:43:59.152Z,215.03
2018-12-14T15:46:29.259Z,116.47
2018-12-14T15:48:58.642Z,106.90
2018-12-14T15:51:28.291Z,247.07
2018-12-14T15:53:57.530Z,87.93
2018-12-14T15:56:26.528Z,83.00
2018-12-14T15:58:55.536Z,190.20
2018-12-14T16:01:24.406Z,71.37
2018-12-14T16:03:53.257Z,378.07
2018-12-14T16:06:22.166Z,229.20
2018-12-14T16:08:51.012Z,66.93
2018-12-14T16:11:21.471Z,206.33
2018-12-14T16:13:50.998Z,69.33
2018-12-14T16:16:20.390Z,82.63
2018-12-14T16:18:49.824Z,69.17
2018-12-14T16:21:18.757Z,85.73
2018-12-14T16:23:47.702Z,71.13
2018-12-14T16:26:16.558Z,93.13
2018-12-14T16:28:45.557Z,94.50
2018-12-14T16:31:14.989Z,111.17
2018-12-14T16:33:43.808Z,75.50
2018-12-14T16:36:12.716Z,126.07
2018-12-14T16:38:41.668Z,77.40
2018-12-14T16:41:10.577Z,97.23
2018-12-14T16:43:39.458Z,69.73
2018-12-14T16:46:09.613Z,93.27
2018-12-14T16:48:38.582Z,81.37
2018-12-14T16:51:07.483Z,74.63
2018-12-14T16:53:42.019Z,127.33
2018-12-14T16:56:11.221Z,188.00
2018-12-14T16:58:40.093Z,108.23
2018-12-14T17:01:09.347Z,156.63
2018-12-14T17:03:38.342Z,128.93
2018-12-14T17:06:07.937Z,98.00
2018-12-14T17:08:36.802Z,130.70
2018-12-14T17:11:05.675Z,91.43
2018-12-14T17:13:34.577Z,655.00
2018-12-14T17:16:03.663Z,279.33
2018-12-14T17:18:32.599Z,96.17
2018-12-14T17:21:01.485Z,113.73
2018-12-14T17:23:30.478Z,235.70
2018-12-14T17:25:59.459Z,218.20
2018-12-14T17:28:28.342Z,108.33
2018-12-14T17:30:57.249Z,244.40
2018-12-14T17:33:26.262Z,281.33
2018-12-14T17:35:55.125Z,234.90
2018-12-14T17:38:23.991Z,100.10
2018-12-14T17:40:53.108Z,175.33
2018-12-14T17:43:22.017Z,172.70
2018-12-14T17:45:51.409Z,111.03
2018-12-14T17:48:20.369Z,145.87
2018-12-14T17:50:49.253Z,103.07
2018-12-14T17:53:18.093Z,347.43
2018-12-14T17:55:46.999Z,178.90
2018-12-14T17:58:15.899Z,343.30
2018-12-14T18:00:44.884Z,118.07
2018-12-14T18:03:13.822Z,158.90
2018-12-14T18:05:43.056Z,229.37
2018-12-14T18:08:12.094Z,261.10
2018-12-14T18:10:41.069Z,163.97
2018-12-14T18:13:16.598Z,119.93
2018-12-14T18:15:46.463Z,122.33
2018-12-14T18:18:15.724Z,164.37
2018-12-14T18:20:44.621Z,90.97
2018-12-14T18:23:14.457Z,161.40
2018-12-14T18:25:43.314Z,156.70
2018-12-14T18:28:12.158Z,102.47
2018-12-14T18:30:41.152Z,95.00
2018-12-14T18:33:10.140Z,85.40
2018-12-14T18:35:39.054Z,78.73
2018-12-14T18:38:07.909Z,74.67
2018-12-14T18:40:41.298Z,77.40
2018-12-14T18:43:10.212Z,70.27
2018-12-14T18:45:39.090Z,70.17
2018-12-14T18:48:07.953Z,128.37
2018-12-14T18:50:36.927Z,88.97
2018-12-14T18:53:05.823Z,73.23
2018-12-14T18:55:35.320Z,67.33
2018-12-14T18:58:04.475Z,97.00
2018-12-14T19:00:33.909Z,106.50
2018-12-14T19:03:02.980Z,75.70
2018-12-14T19:05:31.926Z,67.60
2018-12-14T19:08:00.846Z,74.97
2018-12-14T19:10:29.785Z,132.53
2018-12-14T19:12:58.822Z,72.33
2018-12-14T19:15:27.790Z,61.93
2018-12-14T19:17:56.745Z,80.37
2018-12-14T19:20:31.750Z,76.00
2018-12-14T19:23:00.644Z,72.23
2018-12-14T19:25:41.824Z,161.00
2018-12-14T19:28:27.481Z,83.03
2018-12-14T19:30:56.370Z,75.00
2018-12-14T19:33:25.320Z,73.67
2018-12-14T19:35:54.236Z,67.23
2018-12-14T19:38:23.190Z,73.90
2018-12-14T19:40:52.185Z,70.13
2018-12-14T19:43:21.186Z,99.30
2018-12-14T19:45:50.247Z,148.30
2018-12-14T19:48:19.386Z,115.20
2018-12-14T19:50:48.370Z,153.40
2018-12-14T19:53:17.750Z,150.87
2018-12-14T19:55:47.318Z,63.67
2018-12-14T19:58:16.186Z,120.80
2018-12-14T20:00:45.201Z,69.90
2018-12-14T20:03:14.234Z,69.90
2018-12-14T20:05:43.493Z,97.90
2018-12-14T20:08:12.342Z,110.03
2018-12-14T20:10:41.402Z,74.57
2018-12-14T20:13:10.834Z,61.13
2018-12-14T20:15:43.887Z,64.43
2018-12-14T20:18:18.532Z,57.20
2018-12-14T20:20:52.989Z,112.53
2018-12-14T20:23:29.238Z,61.83
2018-12-14T20:26:08.343Z,58.83
2018-12-14T20:28:50.656Z,91.17
2018-12-14T20:31:37.406Z,64.07
2018-12-14T20:34:06.394Z,46.90
2018-12-14T20:36:38.941Z,65.27
2018-12-14T20:39:08.428Z,66.20
2018-12-14T20:41:43.405Z,91.93
2018-12-14T20:44:12.346Z,79.17
2018-12-14T20:46:41.249Z,76.47
2018-12-14T20:49:10.097Z,71.03
2018-12-14T20:51:39.214Z,103.80
2018-12-14T20:54:08.091Z,115.10
2018-12-14T20:56:36.989Z,79.30
2018-12-14T20:59:05.879Z,60.30
2018-12-14T21:01:34.869Z,62.10
2018-12-14T21:04:03.871Z,85.47
2018-12-14T21:06:32.830Z,99.47
2018-12-14T21:09:02.905Z,78.70
2018-12-14T21:11:31.837Z,92.97
2018-12-14T21:14:01.208Z,75.30
2018-12-14T21:16:31.215Z,81.57
2018-12-14T21:19:00.126Z,81.93
2018-12-14T21:21:39.965Z,77.93
2018-12-14T21:24:09.076Z,64.13
2018-12-14T21:26:38.140Z,63.60
2018-12-14T21:29:16.017Z,64.43
2018-12-14T21:31:44.214Z,82.00
2018-12-14T21:34:13.210Z,64.60
2018-12-14T21:36:48.626Z,72.10
2018-12-14T21:39:17.677Z,59.50
2018-12-14T21:41:46.551Z,60.93
2018-12-14T21:44:15.433Z,59.03
2018-12-14T21:46:44.309Z,74.53
2018-12-14T21:49:13.149Z,81.27
2018-12-14T21:51:42.026Z,84.63
2018-12-14T21:54:10.836Z,70.57
2018-12-14T21:56:39.758Z,64.00
2018-12-14T21:59:08.634Z,57.50
2018-12-14T22:01:37.501Z,65.77
2018-12-14T22:04:06.351Z,55.10
2018-12-14T22:06:35.292Z,52.80
2018-12-14T22:09:05.918Z,49.77
2018-12-14T22:11:35.138Z,51.63
2018-12-14T22:14:04.135Z,67.87
2018-12-14T22:16:38.957Z,56.67
2018-12-14T22:19:04.517Z,60.03
2018-12-14T22:21:33.410Z,57.90
2018-12-14T22:24:02.249Z,47.67
2018-12-14T22:26:31.446Z,45.70
2018-12-14T22:29:00.333Z,42.97
2018-12-14T22:31:29.204Z,45.77
2018-12-14T22:33:58.050Z,46.37
2018-12-14T22:36:26.922Z,48.53
2018-12-14T22:38:55.744Z,50.37
2018-12-14T22:41:24.677Z,43.30
2018-12-14T22:43:53.554Z,44.57
2018-12-14T22:46:22.809Z,43.63
2018-12-14T22:48:51.718Z,55.00
2018-12-14T22:51:20.817Z,50.43
2018-12-14T22:53:49.665Z,47.07
2018-12-14T22:56:19.273Z,42.97
2018-12-14T22:58:48.921Z,51.67
2018-12-14T23:01:17.863Z,68.83
2018-12-14T23:03:46.886Z,60.23
2018-12-14T23:06:15.997Z,48.97
2018-12-14T23:08:44.897Z,53.90
2018-12-14T23:11:14.962Z,40.80
2018-12-14T23:13:43.919Z,52.30
2018-12-14T23:16:12.748Z,53.80
2018-12-14T23:18:41.616Z,60.10
2018-12-14T23:21:10.556Z,55.87
2018-12-14T23:23:39.424Z,51.03
2018-12-14T23:26:18.009Z,51.23
2018-12-14T23:28:51.008Z,48.10
2018-12-14T23:31:23.897Z,50.47
2018-12-14T23:33:53.001Z,49.17
2018-12-14T23:36:22.195Z,42.77
2018-12-14T23:38:51.068Z,55.27
2018-12-14T23:41:19.965Z,49.40
2018-12-14T23:43:54.176Z,46.97
2018-12-14T23:46:23.055Z,44.87
2018-12-14T23:48:51.895Z,51.43
2018-12-14T23:51:21.006Z,46.00
2018-12-14T23:53:49.966Z,44.63
2018-12-14T23:56:19.061Z,46.70
2018-12-14T23:58:48.038Z,46.57
